sensor_id;sensor_type;location;lat;lon;timestamp;pressure;altitude;pressure_sealevel;temperature;humidity
39105;BME280;46464;51.154;13.812;2023-03-26T00:01:06;52358.75;;;-146.96;73.76
39105;BME280;46464;51.154;13.812;2023-03-26T00:03:34;52362.81;;;-146.96;73.50
39105;BME280;46464;51.154;13.812;2023-03-26T00:06:07;52346.53;;;-146.96;73.51
39105;BME280;46464;51.154;13.812;2023-03-26T00:08:35;52366.88;;;-146.96;73.31
39105;BME280;46464;51.154;13.812;2023-03-26T00:11:04;52368.94;;;-146.96;73.64
39105;BME280;46464;51.154;13.812;2023-03-26T00:13:31;52366.88;;;-146.96;73.20
39105;BME280;46464;51.154;13.812;2023-03-26T00:15:59;52324.16;;;-146.96;73.16
39105;BME280;46464;51.154;13.812;2023-03-26T00:18:26;52375.03;;;-146.96;73.17
39105;BME280;46464;51.154;13.812;2023-03-26T00:20:58;52360.78;;;-146.96;72.47
39105;BME280;46464;51.154;13.812;2023-03-26T00:23:25;52375.03;;;-146.96;72.16
39105;BME280;46464;51.154;13.812;2023-03-26T00:25:52;52332.28;;;-146.96;71.72
39105;BME280;46464;51.154;13.812;2023-03-26T00:28:20;52348.56;;;-146.96;71.28
39105;BME280;46464;51.154;13.812;2023-03-26T00:30:57;52336.38;;;-146.96;71.03
39105;BME280;46464;51.154;13.812;2023-03-26T00:33:24;52346.53;;;-146.96;70.52
39105;BME280;46464;51.154;13.812;2023-03-26T00:35:51;52342.47;;;-146.96;70.83
39105;BME280;46464;51.154;13.812;2023-03-26T00:38:23;52348.56;;;-146.96;69.53
39105;BME280;46464;51.154;13.812;2023-03-26T00:40:50;52340.44;;;-146.96;68.89
39105;BME280;46464;51.154;13.812;2023-03-26T00:43:19;52342.47;;;-146.96;68.97
39105;BME280;46464;51.154;13.812;2023-03-26T00:45:47;52328.22;;;-146.96;68.89
39105;BME280;46464;51.154;13.812;2023-03-26T00:48:14;52313.97;;;-146.96;68.86
39105;BME280;46464;51.154;13.812;2023-03-26T00:50:43;52352.66;;;-146.96;68.89
39105;BME280;46464;51.154;13.812;2023-03-26T00:53:11;52293.63;;;-146.96;69.14
39105;BME280;46464;51.154;13.812;2023-03-26T00:55:44;52338.41;;;-146.96;68.32
39105;BME280;46464;51.154;13.812;2023-03-26T00:58:11;52360.78;;;-146.96;68.92
39105;BME280;46464;51.154;13.812;2023-03-26T01:00:47;52358.75;;;-146.96;68.60
39105;BME280;46464;51.154;13.812;2023-03-26T01:03:17;52330.25;;;-146.96;69.27
39105;BME280;46464;51.154;13.812;2023-03-26T01:06:23;52360.78;;;-146.96;68.92
39105;BME280;46464;51.154;13.812;2023-03-26T01:08:54;52330.25;;;-146.96;68.78
39105;BME280;46464;51.154;13.812;2023-03-26T01:11:29;52299.75;;;-146.96;68.42
39105;BME280;46464;51.154;13.812;2023-03-26T01:13:59;52346.53;;;-146.96;68.58
39105;BME280;46464;51.154;13.812;2023-03-26T01:16:51;52332.28;;;-146.96;68.92
39105;BME280;46464;51.154;13.812;2023-03-26T01:19:42;52328.22;;;-146.96;70.15
39105;BME280;46464;51.154;13.812;2023-03-26T01:22:15;52344.50;;;-146.96;71.13
39105;BME280;46464;51.154;13.812;2023-03-26T01:24:42;52375.03;;;-146.96;72.61
39105;BME280;46464;51.154;13.812;2023-03-26T01:27:34;52320.09;;;-146.96;73.50
39105;BME280;46464;51.154;13.812;2023-03-26T01:30:12;52320.09;;;-146.96;75.13
39105;BME280;46464;51.154;13.812;2023-03-26T01:32:49;52368.94;;;-146.96;77.09
39105;BME280;46464;51.154;13.812;2023-03-26T01:38:36;52340.44;;;-146.96;79.33
39105;BME280;46464;51.154;13.812;2023-03-26T01:41:09;52358.75;;;-146.96;80.54
39105;BME280;46464;51.154;13.812;2023-03-26T01:43:52;52395.38;;;-146.96;80.01
39105;BME280;46464;51.154;13.812;2023-03-26T01:46:22;52366.88;;;-146.96;80.88
39105;BME280;46464;51.154;13.812;2023-03-26T01:48:50;52393.34;;;-146.96;81.12
39105;BME280;46464;51.154;13.812;2023-03-26T01:51:32;52387.22;;;-146.96;80.77
39105;BME280;46464;51.154;13.812;2023-03-26T01:54:00;52407.59;;;-146.96;80.85
39105;BME280;46464;51.154;13.812;2023-03-26T02:02:25;52393.34;;;-146.96;80.08
39105;BME280;46464;51.154;13.812;2023-03-26T02:09:58;52389.28;;;-146.96;79.00
39105;BME280;46464;51.154;13.812;2023-03-26T02:12:28;52354.69;;;-146.96;78.41
39105;BME280;46464;51.154;13.812;2023-03-26T02:14:58;52385.19;;;-146.96;77.68
39105;BME280;46464;51.154;13.812;2023-03-26T02:17:25;52403.50;;;-146.96;77.59
39105;BME280;46464;51.154;13.812;2023-03-26T02:19:55;52373.00;;;-146.96;77.06
39105;BME280;46464;51.154;13.812;2023-03-26T02:22:22;52375.03;;;-146.96;76.63
39105;BME280;46464;51.154;13.812;2023-03-26T02:24:54;52381.13;;;-146.96;76.35
39105;BME280;46464;51.154;13.812;2023-03-26T02:27:21;52385.19;;;-146.96;76.74
39105;BME280;46464;51.154;13.812;2023-03-26T02:29:48;52393.34;;;-146.96;76.41
39105;BME280;46464;51.154;13.812;2023-03-26T02:32:15;52350.59;;;-146.96;76.00
39105;BME280;46464;51.154;13.812;2023-03-26T02:34:44;52366.88;;;-146.96;76.03
39105;BME280;46464;51.154;13.812;2023-03-26T02:37:11;52387.22;;;-146.96;76.13
39105;BME280;46464;51.154;13.812;2023-03-26T02:39:37;52373.00;;;-146.96;75.83
39105;BME280;46464;51.154;13.812;2023-03-26T02:42:04;52387.22;;;-146.96;75.80
39105;BME280;46464;51.154;13.812;2023-03-26T02:44:30;52403.50;;;-146.96;75.31
39105;BME280;46464;51.154;13.812;2023-03-26T02:46:57;52370.97;;;-146.96;75.21
39105;BME280;46464;51.154;13.812;2023-03-26T02:49:23;52375.03;;;-146.96;75.13
39105;BME280;46464;51.154;13.812;2023-03-26T02:51:50;52391.31;;;-146.96;75.15
39105;BME280;46464;51.154;13.812;2023-03-26T02:54:22;52401.47;;;-146.96;74.89
39105;BME280;46464;51.154;13.812;2023-03-26T02:56:48;52417.75;;;-146.96;74.76
39105;BME280;46464;51.154;13.812;2023-03-26T02:59:15;52368.94;;;-146.96;75.08
39105;BME280;46464;51.154;13.812;2023-03-26T03:01:42;52373.00;;;-146.96;74.68
39105;BME280;46464;51.154;13.812;2023-03-26T03:04:09;52373.00;;;-146.96;74.78
39105;BME280;46464;51.154;13.812;2023-03-26T03:06:36;52395.38;;;-146.96;75.03
39105;BME280;46464;51.154;13.812;2023-03-26T03:09:05;52362.81;;;-146.96;75.55
39105;BME280;46464;51.154;13.812;2023-03-26T03:11:32;52401.47;;;-146.96;75.19
39105;BME280;46464;51.154;13.812;2023-03-26T03:13:58;52373.00;;;-146.96;75.72
39105;BME280;46464;51.154;13.812;2023-03-26T03:16:25;52399.44;;;-146.96;75.94
39105;BME280;46464;51.154;13.812;2023-03-26T03:18:53;52348.56;;;-146.96;76.05
39105;BME280;46464;51.154;13.812;2023-03-26T03:21:24;52366.88;;;-146.96;76.20
39105;BME280;46464;51.154;13.812;2023-03-26T03:23:55;52375.03;;;-146.96;76.05
39105;BME280;46464;51.154;13.812;2023-03-26T03:26:26;52354.69;;;-146.96;75.87
39105;BME280;46464;51.154;13.812;2023-03-26T03:28:53;52387.22;;;-146.96;76.18
39105;BME280;46464;51.154;13.812;2023-03-26T03:31:23;52368.94;;;-146.96;76.36
39105;BME280;46464;51.154;13.812;2023-03-26T03:33:50;52383.16;;;-146.96;75.90
39105;BME280;46464;51.154;13.812;2023-03-26T03:36:21;52336.38;;;-146.96;76.27
39105;BME280;46464;51.154;13.812;2023-03-26T03:38:49;52375.03;;;-146.96;76.01
39105;BME280;46464;51.154;13.812;2023-03-26T03:41:16;52334.34;;;-146.96;75.73
39105;BME280;46464;51.154;13.812;2023-03-26T03:43:44;52377.06;;;-146.96;75.89
39105;BME280;46464;51.154;13.812;2023-03-26T03:46:11;52366.88;;;-146.96;75.87
39105;BME280;46464;51.154;13.812;2023-03-26T03:48:37;52397.41;;;-146.96;76.02
39105;BME280;46464;51.154;13.812;2023-03-26T03:51:05;52397.41;;;-146.96;76.00
39105;BME280;46464;51.154;13.812;2023-03-26T03:53:31;52364.84;;;-146.96;76.08
39105;BME280;46464;51.154;13.812;2023-03-26T03:56:03;52350.59;;;-146.96;76.08
39105;BME280;46464;51.154;13.812;2023-03-26T03:58:35;52389.28;;;-146.96;76.13
39105;BME280;46464;51.154;13.812;2023-03-26T04:01:02;52415.72;;;-146.96;76.07
39105;BME280;46464;51.154;13.812;2023-03-26T04:03:29;52350.59;;;-146.96;76.11
39105;BME280;46464;51.154;13.812;2023-03-26T04:05:59;52413.69;;;-146.96;76.11
39105;BME280;46464;51.154;13.812;2023-03-26T04:08:25;52413.69;;;-146.96;76.21
39105;BME280;46464;51.154;13.812;2023-03-26T04:10:52;52358.75;;;-146.96;76.47
39105;BME280;46464;51.154;13.812;2023-03-26T04:13:18;52381.13;;;-146.96;76.51
39105;BME280;46464;51.154;13.812;2023-03-26T04:15:45;52389.28;;;-146.96;76.57
39105;BME280;46464;51.154;13.812;2023-03-26T04:18:12;52379.09;;;-146.96;76.39
39105;BME280;46464;51.154;13.812;2023-03-26T04:20:40;52399.44;;;-146.96;76.68
39105;BME280;46464;51.154;13.812;2023-03-26T04:23:12;52385.19;;;-146.96;76.14
39105;BME280;46464;51.154;13.812;2023-03-26T04:25:49;52348.56;;;-146.96;76.13
39105;BME280;46464;51.154;13.812;2023-03-26T04:28:41;52393.34;;;-146.96;76.07
39105;BME280;46464;51.154;13.812;2023-03-26T04:31:13;52401.47;;;-146.96;76.40
39105;BME280;46464;51.154;13.812;2023-03-26T04:33:43;52417.75;;;-146.96;76.30
39105;BME280;46464;51.154;13.812;2023-03-26T04:36:14;52356.72;;;-146.96;76.15
39105;BME280;46464;51.154;13.812;2023-03-26T04:38:44;52362.81;;;-146.96;76.20
39105;BME280;46464;51.154;13.812;2023-03-26T04:41:12;52391.31;;;-146.96;76.15
39105;BME280;46464;51.154;13.812;2023-03-26T04:43:38;52395.38;;;-146.96;76.08
39105;BME280;46464;51.154;13.812;2023-03-26T04:46:13;52360.78;;;-146.96;76.27
39105;BME280;46464;51.154;13.812;2023-03-26T04:48:39;52330.25;;;-146.96;76.36
39105;BME280;46464;51.154;13.812;2023-03-26T04:51:06;52377.06;;;-146.96;76.34
39105;BME280;46464;51.154;13.812;2023-03-26T04:53:33;52381.13;;;-146.96;76.39
39105;BME280;46464;51.154;13.812;2023-03-26T04:58:46;52326.19;;;-146.96;75.72
39105;BME280;46464;51.154;13.812;2023-03-26T05:01:15;52354.69;;;-146.96;75.81
39105;BME280;46464;51.154;13.812;2023-03-26T05:03:43;52340.44;;;-146.96;75.58
39105;BME280;46464;51.154;13.812;2023-03-26T05:06:12;52387.22;;;-146.96;75.59
39105;BME280;46464;51.154;13.812;2023-03-26T05:08:39;52385.19;;;-146.96;76.03
39105;BME280;46464;51.154;13.812;2023-03-26T05:11:09;52346.53;;;-146.96;75.41
39105;BME280;46464;51.154;13.812;2023-03-26T05:13:37;52407.59;;;-146.96;75.22
39105;BME280;46464;51.154;13.812;2023-03-26T05:16:04;52338.41;;;-146.96;74.86
39105;BME280;46464;51.154;13.812;2023-03-26T05:18:30;52358.75;;;-146.96;74.55
39105;BME280;46464;51.154;13.812;2023-03-26T05:20:57;52326.19;;;-146.96;74.41
39105;BME280;46464;51.154;13.812;2023-03-26T05:23:24;52360.78;;;-146.96;74.22
39105;BME280;46464;51.154;13.812;2023-03-26T05:25:50;52405.56;;;-146.96;74.09
39105;BME280;46464;51.154;13.812;2023-03-26T05:28:17;52366.88;;;-146.96;73.53
39105;BME280;46464;51.154;13.812;2023-03-26T05:30:46;52379.09;;;-146.96;73.44
39105;BME280;46464;51.154;13.812;2023-03-26T05:33:12;52373.00;;;-146.96;72.80
39105;BME280;46464;51.154;13.812;2023-03-26T05:35:39;52340.44;;;-146.96;73.61
39105;BME280;46464;51.154;13.812;2023-03-26T05:38:05;52375.03;;;-146.96;73.88
39105;BME280;46464;51.154;13.812;2023-03-26T05:40:32;52383.16;;;-146.96;72.94
39105;BME280;46464;51.154;13.812;2023-03-26T05:42:58;52366.88;;;-146.96;72.84
39105;BME280;46464;51.154;13.812;2023-03-26T05:45:25;52348.56;;;-146.96;73.24
39105;BME280;46464;51.154;13.812;2023-03-26T05:47:51;52356.72;;;-146.96;72.70
39105;BME280;46464;51.154;13.812;2023-03-26T05:50:20;52383.16;;;-146.96;72.68
39105;BME280;46464;51.154;13.812;2023-03-26T05:52:46;52383.16;;;-146.96;72.89
39105;BME280;46464;51.154;13.812;2023-03-26T05:55:13;52326.19;;;-146.96;72.92
39105;BME280;46464;51.154;13.812;2023-03-26T05:57:40;52344.50;;;-146.96;72.53
39105;BME280;46464;51.154;13.812;2023-03-26T06:00:08;52362.81;;;-146.96;72.31
39105;BME280;46464;51.154;13.812;2023-03-26T06:02:36;52379.09;;;-146.96;72.29
39105;BME280;46464;51.154;13.812;2023-03-26T06:05:03;52326.19;;;-146.96;72.70
39105;BME280;46464;51.154;13.812;2023-03-26T06:07:30;52348.56;;;-146.96;72.86
39105;BME280;46464;51.154;13.812;2023-03-26T06:09:59;52368.94;;;-146.96;72.47
39105;BME280;46464;51.154;13.812;2023-03-26T06:12:26;52346.53;;;-146.96;72.70
39105;BME280;46464;51.154;13.812;2023-03-26T06:14:52;52364.84;;;-146.96;72.25
39105;BME280;46464;51.154;13.812;2023-03-26T06:17:19;52340.44;;;-146.96;72.25
39105;BME280;46464;51.154;13.812;2023-03-26T06:19:45;52354.69;;;-146.96;71.68
39105;BME280;46464;51.154;13.812;2023-03-26T06:22:13;52313.97;;;-146.96;71.85
39105;BME280;46464;51.154;13.812;2023-03-26T06:24:40;52336.38;;;-146.96;70.81
39105;BME280;46464;51.154;13.812;2023-03-26T06:27:07;52356.72;;;-146.96;70.97
39105;BME280;46464;51.154;13.812;2023-03-26T06:29:33;52348.56;;;-146.96;70.89
39105;BME280;46464;51.154;13.812;2023-03-26T06:32:00;52346.53;;;-146.96;71.37
39105;BME280;46464;51.154;13.812;2023-03-26T06:34:44;52316.03;;;-146.96;70.69
39105;BME280;46464;51.154;13.812;2023-03-26T06:37:10;52356.72;;;-146.96;70.54
39105;BME280;46464;51.154;13.812;2023-03-26T06:39:37;52366.88;;;-146.96;70.53
39105;BME280;46464;51.154;13.812;2023-03-26T06:42:03;52338.41;;;-146.96;70.58
39105;BME280;46464;51.154;13.812;2023-03-26T06:44:29;52348.56;;;-146.96;70.70
39105;BME280;46464;51.154;13.812;2023-03-26T06:46:56;52332.28;;;-146.96;70.39
39105;BME280;46464;51.154;13.812;2023-03-26T06:49:23;52342.47;;;-146.96;69.58
39105;BME280;46464;51.154;13.812;2023-03-26T06:51:49;52344.50;;;-146.96;70.10
39105;BME280;46464;51.154;13.812;2023-03-26T06:54:16;52352.66;;;-146.96;69.16
39105;BME280;46464;51.154;13.812;2023-03-26T06:56:42;52336.38;;;-146.96;69.62
39105;BME280;46464;51.154;13.812;2023-03-26T06:59:10;52297.72;;;-146.96;69.09
39105;BME280;46464;51.154;13.812;2023-03-26T07:01:36;52342.47;;;-146.96;68.02
39105;BME280;46464;51.154;13.812;2023-03-26T07:04:03;52318.06;;;-146.96;68.53
39105;BME280;46464;51.154;13.812;2023-03-26T07:06:30;52350.59;;;-146.96;67.45
39105;BME280;46464;51.154;13.812;2023-03-26T07:08:57;52352.66;;;-146.96;67.71
39105;BME280;46464;51.154;13.812;2023-03-26T07:11:23;52293.63;;;-146.96;67.17
39105;BME280;46464;51.154;13.812;2023-03-26T07:13:52;52289.56;;;-146.96;67.56
39105;BME280;46464;51.154;13.812;2023-03-26T07:16:18;52279.41;;;-146.96;67.02
39105;BME280;46464;51.154;13.812;2023-03-26T07:18:45;52281.44;;;-146.96;66.26
39105;BME280;46464;51.154;13.812;2023-03-26T07:21:12;52332.28;;;-146.96;65.71
39105;BME280;46464;51.154;13.812;2023-03-26T07:23:38;52309.91;;;-146.96;65.59
39105;BME280;46464;51.154;13.812;2023-03-26T07:26:22;52334.34;;;-146.96;66.42
39105;BME280;46464;51.154;13.812;2023-03-26T07:31:59;52297.72;;;-146.96;67.41
39105;BME280;46464;51.154;13.812;2023-03-26T07:34:59;52322.13;;;-146.96;67.38
39105;BME280;46464;51.154;13.812;2023-03-26T07:37:35;52326.19;;;-146.96;67.06
39105;BME280;46464;51.154;13.812;2023-03-26T07:40:19;52322.13;;;-146.96;67.50
39105;BME280;46464;51.154;13.812;2023-03-26T07:45:39;52287.53;;;-146.96;64.36
39105;BME280;46464;51.154;13.812;2023-03-26T07:48:23;52271.25;;;-146.96;64.11
39105;BME280;46464;51.154;13.812;2023-03-26T07:50:51;52297.72;;;-146.96;64.13
39105;BME280;46464;51.154;13.812;2023-03-26T07:53:19;52309.91;;;-146.96;64.50
39105;BME280;46464;51.154;13.812;2023-03-26T07:55:53;52318.06;;;-146.96;64.23
39105;BME280;46464;51.154;13.812;2023-03-26T08:07:13;52309.91;;;-146.96;64.93
39105;BME280;46464;51.154;13.812;2023-03-26T08:10:16;52328.22;;;-146.96;63.90
39105;BME280;46464;51.154;13.812;2023-03-26T08:12:58;52299.75;;;-146.96;65.05
39105;BME280;46464;51.154;13.812;2023-03-26T08:15:52;52273.28;;;-146.96;65.57
39105;BME280;46464;51.154;13.812;2023-03-26T08:21:14;52299.75;;;-146.96;64.25
39105;BME280;46464;51.154;13.812;2023-03-26T08:23:57;52281.44;;;-146.96;64.03
39105;BME280;46464;51.154;13.812;2023-03-26T08:26:31;52324.16;;;-146.96;65.03
39105;BME280;46464;51.154;13.812;2023-03-26T08:31:48;52326.19;;;-146.96;64.98
39105;BME280;46464;51.154;13.812;2023-03-26T08:34:14;52313.97;;;-146.96;64.70
39105;BME280;46464;51.154;13.812;2023-03-26T08:36:41;52309.91;;;-146.96;64.25
39105;BME280;46464;51.154;13.812;2023-03-26T08:39:08;52305.84;;;-146.96;64.98
39105;BME280;46464;51.154;13.812;2023-03-26T08:50:15;52318.06;;;-146.96;65.65
39105;BME280;46464;51.154;13.812;2023-03-26T08:55:51;52277.34;;;-146.96;64.09
39105;BME280;46464;51.154;13.812;2023-03-26T09:07:23;52318.06;;;-146.96;63.23
39105;BME280;46464;51.154;13.812;2023-03-26T09:13:10;52299.75;;;-146.96;63.80
39105;BME280;46464;51.154;13.812;2023-03-26T09:16:06;52275.31;;;-146.96;63.66
39105;BME280;46464;51.154;13.812;2023-03-26T09:18:54;52254.97;;;-146.96;63.36
39105;BME280;46464;51.154;13.812;2023-03-26T09:21:40;52275.31;;;-146.96;63.33
39105;BME280;46464;51.154;13.812;2023-03-26T09:30:03;52297.72;;;-146.96;62.71
39105;BME280;46464;51.154;13.812;2023-03-26T09:33:03;52267.19;;;-146.96;63.10
39105;BME280;46464;51.154;13.812;2023-03-26T09:38:35;52313.97;;;-146.96;62.98
39105;BME280;46464;51.154;13.812;2023-03-26T09:41:40;52283.47;;;-146.96;63.38
39105;BME280;46464;51.154;13.812;2023-03-26T09:44:46;52287.53;;;-146.96;62.07
39105;BME280;46464;51.154;13.812;2023-03-26T10:04:30;52273.28;;;-146.96;62.24
39105;BME280;46464;51.154;13.812;2023-03-26T10:09:55;52242.78;;;-146.96;61.51
39105;BME280;46464;51.154;13.812;2023-03-26T10:12:38;52226.50;;;-146.96;60.87
39105;BME280;46464;51.154;13.812;2023-03-26T10:18:20;52263.13;;;-146.96;58.12
39105;BME280;46464;51.154;13.812;2023-03-26T10:24:28;52232.59;;;-146.96;57.81
39105;BME280;46464;51.154;13.812;2023-03-26T10:27:11;52218.34;;;-146.96;57.84
39105;BME280;46464;51.154;13.812;2023-03-26T10:30:06;52232.59;;;-146.96;57.69
39105;BME280;46464;51.154;13.812;2023-03-26T10:38:31;52210.22;;;-146.96;55.09
39105;BME280;46464;51.154;13.812;2023-03-26T10:44:23;52202.06;;;-146.96;55.06
39105;BME280;46464;51.154;13.812;2023-03-26T10:47:04;52204.13;;;-146.96;54.32
39105;BME280;46464;51.154;13.812;2023-03-26T10:49:46;52216.31;;;-146.96;54.07
39105;BME280;46464;51.154;13.812;2023-03-26T10:52:24;52200.03;;;-146.96;54.28
39105;BME280;46464;51.154;13.812;2023-03-26T10:54:55;52204.13;;;-146.96;54.02
39105;BME280;46464;51.154;13.812;2023-03-26T10:57:37;52167.50;;;-146.96;55.87
39105;BME280;46464;51.154;13.812;2023-03-26T11:00:19;52163.41;;;-146.96;54.95
39105;BME280;46464;51.154;13.812;2023-03-26T11:08:52;52216.31;;;-146.96;54.48
39105;BME280;46464;51.154;13.812;2023-03-26T11:11:37;52193.94;;;-146.96;53.17
39105;BME280;46464;51.154;13.812;2023-03-26T11:14:19;52185.81;;;-146.96;51.88
39105;BME280;46464;51.154;13.812;2023-03-26T11:17:12;52179.69;;;-146.96;51.78
39105;BME280;46464;51.154;13.812;2023-03-26T11:20:16;52177.66;;;-146.96;52.51
39105;BME280;46464;51.154;13.812;2023-03-26T11:22:55;52175.63;;;-146.96;52.59
39105;BME280;46464;51.154;13.812;2023-03-26T11:28:35;52175.63;;;-146.96;52.37
39105;BME280;46464;51.154;13.812;2023-03-26T11:34:01;52169.53;;;-146.96;52.03
39105;BME280;46464;51.154;13.812;2023-03-26T11:36:34;52200.03;;;-146.96;52.07
39105;BME280;46464;51.154;13.812;2023-03-26T11:39:05;52147.13;;;-146.96;52.07
39105;BME280;46464;51.154;13.812;2023-03-26T11:41:35;52167.50;;;-146.96;52.07
39105;BME280;46464;51.154;13.812;2023-03-26T11:44:07;52163.41;;;-146.96;51.32
39105;BME280;46464;51.154;13.812;2023-03-26T11:46:42;52171.56;;;-146.96;50.88
39105;BME280;46464;51.154;13.812;2023-03-26T11:49:11;52187.84;;;-146.96;51.40
39105;BME280;46464;51.154;13.812;2023-03-26T11:51:39;52163.41;;;-146.96;51.81
39105;BME280;46464;51.154;13.812;2023-03-26T11:54:08;52159.34;;;-146.96;51.73
39105;BME280;46464;51.154;13.812;2023-03-26T11:56:53;52198.00;;;-146.96;51.92
39105;BME280;46464;51.154;13.812;2023-03-26T11:59:36;52193.94;;;-146.96;52.49
39105;BME280;46464;51.154;13.812;2023-03-26T12:02:27;52185.81;;;-146.96;52.74
39105;BME280;46464;51.154;13.812;2023-03-26T12:05:11;52171.56;;;-146.96;52.28
39105;BME280;46464;51.154;13.812;2023-03-26T12:07:48;52238.69;;;-146.96;52.52
39105;BME280;46464;51.154;13.812;2023-03-26T12:10:35;52240.75;;;-146.96;55.46
39105;BME280;46464;51.154;13.812;2023-03-26T12:13:42;52173.59;;;-146.96;51.96
39105;BME280;46464;51.154;13.812;2023-03-26T12:16:13;52175.63;;;-146.96;52.03
39105;BME280;46464;51.154;13.812;2023-03-26T12:18:42;52141.03;;;-146.96;53.49
39105;BME280;46464;51.154;13.812;2023-03-26T12:21:14;52167.50;;;-146.96;52.37
39105;BME280;46464;51.154;13.812;2023-03-26T12:26:43;52149.19;;;-146.96;53.22
39105;BME280;46464;51.154;13.812;2023-03-26T12:29:16;52200.03;;;-146.96;50.74
39105;BME280;46464;51.154;13.812;2023-03-26T12:32:01;52159.34;;;-146.96;50.76
39105;BME280;46464;51.154;13.812;2023-03-26T12:34:34;52161.38;;;-146.96;51.93
39105;BME280;46464;51.154;13.812;2023-03-26T12:37:03;52100.34;;;-146.96;49.73
39105;BME280;46464;51.154;13.812;2023-03-26T12:39:38;52151.22;;;-146.96;51.97
39105;BME280;46464;51.154;13.812;2023-03-26T12:42:30;52134.94;;;-146.96;50.44
39105;BME280;46464;51.154;13.812;2023-03-26T12:45:20;52126.78;;;-146.96;48.45
39105;BME280;46464;51.154;13.812;2023-03-26T12:47:48;52136.97;;;-146.96;49.70
39105;BME280;46464;51.154;13.812;2023-03-26T12:56:14;52139.00;;;-146.96;48.81
39105;BME280;46464;51.154;13.812;2023-03-26T12:59:02;52159.34;;;-146.96;50.84
39105;BME280;46464;51.154;13.812;2023-03-26T13:04:47;52159.34;;;-146.96;51.21
39105;BME280;46464;51.154;13.812;2023-03-26T13:10:39;52189.88;;;-146.96;52.69
39105;BME280;46464;51.154;13.812;2023-03-26T13:15:46;52165.44;;;-146.96;52.47
39105;BME280;46464;51.154;13.812;2023-03-26T13:23:57;52145.09;;;-146.96;52.91
39105;BME280;46464;51.154;13.812;2023-03-26T13:29:19;52163.41;;;-146.96;53.22
39105;BME280;46464;51.154;13.812;2023-03-26T13:40:36;52130.88;;;-146.96;53.91
39105;BME280;46464;51.154;13.812;2023-03-26T13:48:31;52173.59;;;-146.96;54.84
39105;BME280;46464;51.154;13.812;2023-03-26T13:51:17;52179.69;;;-146.96;54.78
39105;BME280;46464;51.154;13.812;2023-03-26T13:53:54;52177.66;;;-146.96;54.11
39105;BME280;46464;51.154;13.812;2023-03-26T13:56:28;52208.19;;;-146.96;54.61
39105;BME280;46464;51.154;13.812;2023-03-26T13:59:04;52161.38;;;-146.96;56.71
39105;BME280;46464;51.154;13.812;2023-03-26T14:01:35;52185.81;;;-146.96;54.07
39105;BME280;46464;51.154;13.812;2023-03-26T14:04:12;52193.94;;;-146.96;54.84
39105;BME280;46464;51.154;13.812;2023-03-26T14:06:45;52191.91;;;-146.96;53.56
39105;BME280;46464;51.154;13.812;2023-03-26T14:09:20;52189.88;;;-146.96;54.13
39105;BME280;46464;51.154;13.812;2023-03-26T14:14:37;52179.69;;;-146.96;53.57
39105;BME280;46464;51.154;13.812;2023-03-26T14:17:20;52165.44;;;-146.96;55.42
39105;BME280;46464;51.154;13.812;2023-03-26T14:23:15;52198.00;;;-146.96;54.73
39105;BME280;46464;51.154;13.812;2023-03-26T14:26:20;52181.72;;;-146.96;54.75
39105;BME280;46464;51.154;13.812;2023-03-26T14:29:03;52177.66;;;-146.96;54.13
39105;BME280;46464;51.154;13.812;2023-03-26T14:37:41;52136.97;;;-146.96;54.20
39105;BME280;46464;51.154;13.812;2023-03-26T14:40:27;52157.31;;;-146.96;54.95
39105;BME280;46464;51.154;13.812;2023-03-26T14:48:42;52173.59;;;-146.96;58.22
39105;BME280;46464;51.154;13.812;2023-03-26T14:54:03;52234.63;;;-146.96;58.46
39105;BME280;46464;51.154;13.812;2023-03-26T15:14:39;52289.56;;;-146.96;76.99
39105;BME280;46464;51.154;13.812;2023-03-26T15:17:53;52326.19;;;-146.96;76.36
39105;BME280;46464;51.154;13.812;2023-03-26T15:28:38;52332.28;;;-146.96;78.01
39105;BME280;46464;51.154;13.812;2023-03-26T15:31:40;52326.19;;;-146.96;77.12
39105;BME280;46464;51.154;13.812;2023-03-26T15:34:33;52320.09;;;-146.96;76.79
39105;BME280;46464;51.154;13.812;2023-03-26T15:40:16;52313.97;;;-146.96;77.46
39105;BME280;46464;51.154;13.812;2023-03-26T15:42:52;52324.16;;;-146.96;78.11
39105;BME280;46464;51.154;13.812;2023-03-26T15:45:41;52360.78;;;-146.96;77.68
39105;BME280;46464;51.154;13.812;2023-03-26T15:50:48;52358.75;;;-146.96;77.28
39105;BME280;46464;51.154;13.812;2023-03-26T15:53:38;52342.47;;;-146.96;76.63
39105;BME280;46464;51.154;13.812;2023-03-26T15:59:06;52326.19;;;-146.96;76.91
39105;BME280;46464;51.154;13.812;2023-03-26T16:01:58;52350.59;;;-146.96;76.02
39105;BME280;46464;51.154;13.812;2023-03-26T16:04:43;52330.25;;;-146.96;75.81
39105;BME280;46464;51.154;13.812;2023-03-26T16:10:33;52320.09;;;-146.96;76.92
39105;BME280;46464;51.154;13.812;2023-03-26T16:13:29;52332.28;;;-146.96;77.73
39105;BME280;46464;51.154;13.812;2023-03-26T16:18:33;52366.88;;;-146.96;77.05
39105;BME280;46464;51.154;13.812;2023-03-26T16:26:36;52375.03;;;-146.96;77.61
39105;BME280;46464;51.154;13.812;2023-03-26T16:29:22;52320.09;;;-146.96;78.91
39105;BME280;46464;51.154;13.812;2023-03-26T16:34:49;52389.28;;;-146.96;78.03
39105;BME280;46464;51.154;13.812;2023-03-26T16:45:33;52362.81;;;-146.96;79.98
39105;BME280;46464;51.154;13.812;2023-03-26T17:02:04;52411.66;;;-146.96;83.51
39105;BME280;46464;51.154;13.812;2023-03-26T17:04:34;52352.66;;;-146.96;83.89
39105;BME280;46464;51.154;13.812;2023-03-26T17:09:58;52350.59;;;-146.96;85.06
39105;BME280;46464;51.154;13.812;2023-03-26T17:12:35;52393.34;;;-146.96;85.00
39105;BME280;46464;51.154;13.812;2023-03-26T17:15:22;52344.50;;;-146.96;84.58